Archival Weather

NSFA McMurdo Sound

NSFA McMurdo Sound, Antarctica (NZCM)

Report from: Friday, September 23, 2022 9:55 AM UTC
Current time: Sunday, December 4, 2022 11:32 AM UTC

Current weather
Weather history
Weather forecast

Present weatherBlowing snow, mist
Temperature-22.9°C (-9.2°F)
Wind chill-37.5°C (-35.5°F)
Dew point-27.1°C (-16.8°F)
Winds 20 kts (10.3 m/s, 23 mph) East-Northeast (70°)
Wind gusts 28 kts (14.4 m/s, 32.2 mph)
Peak wind 28 kts (14.4 m/s, 32.2 mph) East-Northeast (70°) at 04:45
Visibility1.4 mi. (2.3 km)
Clouds Ceiling: Overcast 1,500 ft. (457 m)
Altimeter28.65 in.Hg (970 mB)
Precip. events Snow began 8:57 AM
Snow ended 9:15 AM
Snow began 9:42 AM
Snow ended 9:53 AM
Relative humidity68 %
Density altitude-3,346 ft. (-1,020 m)
Sea-level pressure107.1 kPa (1071 mB, 31.63 in.Hg)
Remarks Fully automated report
System requires maintenance
Automated weather observing station with precipitation discriminator
Flight conditions Instrument Meteorological Conditions
Raw dataNZCM 230955Z AUTO 07020G28KT 2300 BLSN BR OVC015 M23/M27 A2865 RMK AO2 PK WND 07028/0945 WSHFT 0903 SNB0857E0915B0942E0953 SLP710 T12291271 $
An error has occurred. This application may no longer respond until reloaded. Reload 🗙